Time;durP1;ratioP1;P1;durP2;ratioP2;P2;SDS_P1;SDS_P2;PMS_P1;PMS_P2;Temp;Humidity;BMP_temperature;BMP_pressure;BME280_temperature;BME280_humidity;BME280_pressure;Samples;Min_cycle;Max_cycle;Signal;HPM_P1;HPM_P2
2021/11/30 00:01:28;;;;;;;10.37;1.33;;;6.50;99.90;;;;;;5042626;28;38409;-74
2021/11/30 00:03:58;;;;;;;5.83;0.97;;;6.40;99.90;;;;;;5035339;28;39016;-74
2021/11/30 00:06:26;;;;;;;5.87;1.27;;;6.40;99.90;;;;;;5037098;28;37791;-76
2021/11/30 00:08:58;;;;;;;5.43;1.30;;;6.30;99.90;;;;;;5040866;28;36484;-76
2021/11/30 00:11:24;;;;;;;6.50;1.08;;;6.30;99.90;;;;;;5027541;28;38920;-75
2021/11/30 00:13:50;;;;;;;5.20;1.40;;;6.30;99.90;;;;;;5011986;28;38102;-75
2021/11/30 00:16:16;;;;;;;5.67;1.20;;;6.20;99.90;;;;;;5013364;28;36662;-75
2021/11/30 00:18:42;;;;;;;9.07;1.70;;;6.20;99.90;;;;;;5015421;28;39517;-76
2021/11/30 00:21:11;;;;;;;5.63;1.40;;;6.20;99.90;;;;;;5015218;28;39100;-75
2021/11/30 00:23:38;;;;;;;9.00;1.40;;;6.20;99.90;;;;;;5015200;28;38336;-75
2021/11/30 00:26:05;;;;;;;7.87;2.07;;;6.20;99.90;;;;;;5009096;28;37658;-76
2021/11/30 00:28:32;;;;;;;11.27;2.40;;;6.20;99.90;;;;;;5005824;28;39140;-74
2021/11/30 00:30:58;;;;;;;6.97;1.47;;;6.20;99.90;;;;;;5011954;28;38554;-75
2021/11/30 00:33:24;;;;;;;9.83;1.60;;;6.30;99.90;;;;;;5012061;28;38205;-75
2021/11/30 00:35:51;;;;;;;7.83;1.67;;;6.30;99.90;;;;;;5010896;28;38452;-75
2021/11/30 00:38:18;;;;;;;10.90;2.17;;;6.20;99.90;;;;;;5007144;28;37452;-75
2021/11/30 00:40:45;;;;;;;7.63;1.27;;;6.20;99.90;;;;;;5011951;28;38621;-76
2021/11/30 00:43:25;;;;;;;9.10;1.80;;;6.20;99.90;;;;;;5012107;28;38528;-75
2021/11/30 00:46:10;;;;;;;7.10;1.67;;;6.20;99.90;;;;;;5011377;28;37466;-75
2021/11/30 00:48:37;;;;;;;8.90;1.63;;;6.20;99.90;;;;;;5040573;28;48537;-76
2021/11/30 00:51:10;;;;;;;6.90;1.73;;;6.10;99.90;;;;;;5034660;28;38860;-76
2021/11/30 00:53:38;;;;;;;5.97;1.80;;;6.10;99.90;;;;;;5034292;28;38367;-75
2021/11/30 00:56:05;;;;;;;12.13;2.37;;;6.10;99.90;;;;;;5036330;28;35764;-76
2021/11/30 00:58:32;;;;;;;6.97;2.40;;;6.00;99.90;;;;;;5039035;28;39476;-76
2021/11/30 01:00:58;;;;;;;9.60;2.37;;;6.10;99.90;;;;;;5036676;28;38673;-76
2021/11/30 01:03:24;;;;;;;13.23;3.33;;;6.10;99.90;;;;;;5042123;28;38617;-76
2021/11/30 01:05:50;;;;;;;11.70;3.73;;;6.10;99.90;;;;;;5037347;28;36069;-74
2021/11/30 01:08:17;;;;;;;13.40;4.53;;;6.10;99.90;;;;;;5038874;28;40605;-76
2021/11/30 01:10:43;;;;;;;12.53;4.93;;;6.10;99.90;;;;;;5039194;28;39157;-75
2021/11/30 01:13:09;;;;;;;18.20;5.60;;;6.10;99.90;;;;;;5036630;28;38225;-75
2021/11/30 01:15:35;;;;;;;11.30;4.80;;;6.20;99.90;;;;;;5034024;28;37463;-75
2021/11/30 01:18:01;;;;;;;12.33;5.43;;;6.10;99.90;;;;;;5032752;28;38741;-77
2021/11/30 01:20:27;;;;;;;11.90;5.73;;;6.20;99.90;;;;;;5033743;28;39585;-77
2021/11/30 01:22:53;;;;;;;18.80;6.77;;;6.20;99.90;;;;;;5031223;28;37549;-76
2021/11/30 01:25:20;;;;;;;18.93;6.73;;;6.20;99.90;;;;;;5034560;28;36979;-75
2021/11/30 01:27:47;;;;;;;12.20;6.50;;;6.20;99.90;;;;;;5031539;28;40619;-76
2021/11/30 01:30:15;;;;;;;15.20;7.47;;;6.20;99.90;;;;;;5029871;28;39473;-75
2021/11/30 01:32:42;;;;;;;18.77;7.83;;;6.20;99.90;;;;;;5015905;28;40367;-76
2021/11/30 01:35:09;;;;;;;14.60;7.47;;;6.20;99.90;;;;;;5017354;28;36495;-76
2021/11/30 01:37:37;;;;;;;15.73;8.63;;;6.20;99.90;;;;;;5030496;28;40154;-76
2021/11/30 01:40:05;;;;;;;18.37;9.03;;;6.30;99.90;;;;;;5016519;28;40075;-75
2021/11/30 01:42:33;;;;;;;17.07;9.20;;;6.30;99.90;;;;;;5014384;28;47651;-76
2021/11/30 01:45:07;;;;;;;20.50;10.17;;;6.30;99.90;;;;;;5015868;28;37361;-76
2021/11/30 01:47:54;;;;;;;16.90;8.70;;;6.30;99.90;;;;;;5015817;28;46826;-76
2021/11/30 01:50:20;;;;;;;17.67;9.63;;;6.40;99.90;;;;;;5013612;28;39010;-76
2021/11/30 01:52:49;;;;;;;18.47;10.23;;;6.40;99.90;;;;;;5013617;28;36614;-75
2021/11/30 01:55:16;;;;;;;21.10;10.47;;;6.40;99.90;;;;;;5013815;28;37867;-76
2021/11/30 01:57:42;;;;;;;20.80;11.87;;;6.50;99.90;;;;;;5014005;28;40113;-76
2021/11/30 02:00:09;;;;;;;16.10;10.50;;;6.50;99.90;;;;;;5015678;28;38621;-76
2021/11/30 02:02:36;;;;;;;18.00;10.10;;;6.50;99.90;;;;;;5016061;28;36644;-76
2021/11/30 02:05:03;;;;;;;18.90;11.17;;;6.50;99.90;;;;;;5031136;28;38969;-76
2021/11/30 02:07:29;;;;;;;21.77;11.87;;;6.50;99.90;;;;;;5018908;28;40841;-76
2021/11/30 02:09:55;;;;;;;19.63;12.23;;;6.50;99.90;;;;;;5021469;28;38976;-76
2021/11/30 02:12:21;;;;;;;26.23;13.23;;;6.60;99.90;;;;;;5015194;28;36991;-76
2021/11/30 02:14:50;;;;;;;15.10;10.80;;;6.70;99.90;;;;;;5016673;28;37794;-75
2021/11/30 02:17:16;;;;;;;13.67;10.73;;;6.70;99.90;;;;;;5013138;28;39232;-77
2021/11/30 02:19:49;;;;;;;22.90;13.73;;;6.80;99.90;;;;;;5017880;28;38209;-76
2021/11/30 02:22:15;;;;;;;20.30;13.90;;;6.90;99.90;;;;;;5013313;28;40545;-74
2021/11/30 02:24:42;;;;;;;19.20;12.07;;;6.90;99.90;;;;;;5015255;28;37502;-75
2021/11/30 02:27:09;;;;;;;22.77;14.97;;;7.00;99.90;;;;;;5016158;28;37711;-75
2021/11/30 02:29:35;;;;;;;14.17;11.60;;;7.00;99.90;;;;;;5019433;28;38369;-74
2021/11/30 02:32:01;;;;;;;27.43;16.57;;;7.10;99.90;;;;;;5011914;28;38225;-75
2021/11/30 02:34:28;;;;;;;16.20;9.43;;;7.10;99.90;;;;;;5016370;28;48742;-74
2021/11/30 02:37:03;;;;;;;13.23;7.23;;;7.40;99.90;;;;;;5018908;28;38441;-74
2021/11/30 02:39:29;;;;;;;12.20;5.73;;;7.70;99.90;;;;;;5009610;28;47525;-74
2021/11/30 02:41:57;;;;;;;12.27;5.40;;;8.20;99.90;;;;;;5015128;28;38593;-74
2021/11/30 02:44:24;;;;;;;12.60;5.23;;;8.60;99.90;;;;;;5010996;28;38007;-73
2021/11/30 02:47:02;;;;;;;12.73;4.57;;;8.70;99.90;;;;;;5011465;28;38713;-74
2021/11/30 02:49:30;;;;;;;15.13;5.23;;;8.70;99.90;;;;;;5027327;28;47255;-75
2021/11/30 02:52:06;;;;;;;13.00;4.80;;;8.80;99.90;;;;;;5028898;28;38042;-73
2021/11/30 02:54:35;;;;;;;18.70;4.77;;;8.90;99.90;;;;;;5006208;28;47334;-74
2021/11/30 02:57:04;;;;;;;12.00;5.27;;;9.00;99.90;;;;;;5004419;28;38465;-74
2021/11/30 02:59:33;;;;;;;20.43;4.90;;;9.00;99.90;;;;;;5019005;28;47026;-75
2021/11/30 03:02:09;;;;;;;14.70;5.27;;;9.00;99.90;;;;;;5012064;28;38290;-75
2021/11/30 03:04:36;;;;;;;14.63;4.20;;;9.10;99.90;;;;;;5009845;28;48281;-74
2021/11/30 03:07:02;;;;;;;17.30;4.80;;;9.10;99.90;;;;;;5011334;28;41567;-75
2021/11/30 03:09:28;;;;;;;9.33;4.17;;;9.10;99.90;;;;;;5011914;28;39381;-75
2021/11/30 03:11:55;;;;;;;15.23;4.40;;;9.10;99.90;;;;;;5011648;28;39680;-75
2021/11/30 03:14:23;;;;;;;14.33;4.00;;;9.20;99.90;;;;;;5013239;28;38119;-74
2021/11/30 03:16:49;;;;;;;17.23;4.10;;;9.20;99.90;;;;;;5013428;28;38427;-75
2021/11/30 03:19:16;;;;;;;17.23;4.83;;;9.20;99.90;;;;;;5012027;28;38986;-75
2021/11/30 03:21:44;;;;;;;13.77;4.20;;;9.30;99.90;;;;;;5013349;28;38139;-74
2021/11/30 03:24:10;;;;;;;14.60;4.93;;;9.30;99.90;;;;;;5014448;28;38038;-74
2021/11/30 03:26:36;;;;;;;15.37;4.00;;;9.30;99.90;;;;;;5019869;28;40975;-75
2021/11/30 03:29:02;;;;;;;19.67;4.97;;;9.40;99.90;;;;;;5018136;28;39056;-74
2021/11/30 03:31:49;;;;;;;16.20;5.07;;;9.40;99.90;;;;;;5018457;28;38423;-74
2021/11/30 03:34:18;;;;;;;14.93;4.40;;;9.40;99.90;;;;;;5016886;28;37726;-76
2021/11/30 03:36:48;;;;;;;20.17;4.60;;;9.40;99.90;;;;;;5015490;28;39162;-74
2021/11/30 03:39:20;;;;;;;13.23;4.47;;;9.40;99.90;;;;;;5025156;28;37034;-74
2021/11/30 03:41:48;;;;;;;12.25;4.22;;;9.40;99.90;;;;;;5033102;28;40873;-73
2021/11/30 03:44:15;;;;;;;19.33;4.87;;;9.40;99.90;;;;;;5024297;28;37573;-75
2021/11/30 03:46:42;;;;;;;15.63;4.60;;;9.40;99.90;;;;;;5008611;28;38498;-75
2021/11/30 03:49:10;;;;;;;16.17;5.57;;;9.50;99.90;;;;;;5036931;28;38986;-75
2021/11/30 03:51:36;;;;;;;16.90;5.10;;;9.50;99.90;;;;;;5005862;28;39850;-75
2021/11/30 03:54:04;;;;;;;13.97;5.07;;;9.50;99.90;;;;;;5033885;28;38410;-74
2021/11/30 03:56:31;;;;;;;12.97;4.97;;;9.50;99.90;;;;;;5006666;28;40634;-75
2021/11/30 03:58:57;;;;;;;9.33;4.83;;;9.40;99.90;;;;;;5001095;28;39767;-75
2021/11/30 04:01:23;;;;;;;14.23;5.17;;;9.50;99.90;;;;;;5004453;28;37863;-75
2021/11/30 04:03:49;;;;;;;15.60;5.20;;;9.50;99.90;;;;;;5008832;28;37020;-74
2021/11/30 04:06:15;;;;;;;10.80;5.27;;;9.60;99.90;;;;;;5004876;28;37622;-75
2021/11/30 04:08:41;;;;;;;13.23;4.70;;;9.60;99.90;;;;;;5009003;28;38424;-75
2021/11/30 04:11:10;;;;;;;12.27;4.80;;;9.60;99.90;;;;;;5003922;28;37732;-76
2021/11/30 04:13:36;;;;;;;16.30;4.67;;;9.60;99.90;;;;;;5005033;28;36944;-75
2021/11/30 04:16:03;;;;;;;13.67;5.27;;;9.60;99.90;;;;;;5007049;28;39182;-74
2021/11/30 04:18:30;;;;;;;17.40;5.57;;;9.70;99.90;;;;;;5006528;28;38305;-75
2021/11/30 04:20:56;;;;;;;13.77;5.77;;;9.70;99.90;;;;;;5003379;28;40051;-75
2021/11/30 04:23:25;;;;;;;10.63;5.80;;;9.70;99.90;;;;;;5003966;28;36992;-74
2021/11/30 04:25:51;;;;;;;15.67;7.03;;;9.70;99.90;;;;;;5007588;28;39515;-75
2021/11/30 04:28:18;;;;;;;19.00;6.77;;;9.70;99.90;;;;;;5004161;28;38349;-74
2021/11/30 04:30:44;;;;;;;16.00;7.00;;;9.70;99.90;;;;;;5003129;28;37713;-74
2021/11/30 04:33:10;;;;;;;15.80;6.93;;;9.70;99.90;;;;;;5005477;28;37136;-76
2021/11/30 04:35:36;;;;;;;25.53;7.67;;;9.80;99.90;;;;;;5002342;28;38614;-74
2021/11/30 04:38:02;;;;;;;19.73;7.90;;;9.80;99.90;;;;;;5004605;28;39929;-75
2021/11/30 04:40:28;;;;;;;22.57;8.00;;;9.80;99.90;;;;;;5035193;28;38605;-74
2021/11/30 04:42:55;;;;;;;17.50;8.07;;;9.80;99.90;;;;;;5010492;28;36635;-74
2021/11/30 04:45:33;;;;;;;30.87;9.13;;;9.90;99.90;;;;;;5010084;28;40561;-75
2021/11/30 04:47:59;;;;;;;21.83;8.53;;;9.90;99.90;;;;;;5018273;28;37792;-74
2021/11/30 04:50:29;;;;;;;20.20;8.47;;;9.90;99.90;;;;;;5002436;28;38300;-74
2021/11/30 04:52:59;;;;;;;16.93;8.20;;;9.90;99.90;;;;;;5003418;28;36890;-74
2021/11/30 04:55:28;;;;;;;25.40;9.53;;;9.80;99.90;;;;;;5007075;28;37532;-74
2021/11/30 04:58:01;;;;;;;20.93;8.43;;;9.90;99.90;;;;;;5003068;28;38537;-75
2021/11/30 05:00:29;;;;;;;15.30;8.33;;;9.90;99.90;;;;;;5007935;28;47681;-74
2021/11/30 05:02:56;;;;;;;23.50;8.83;;;9.90;99.90;;;;;;5011538;28;36952;-74
2021/11/30 05:05:22;;;;;;;21.30;8.80;;;9.90;99.90;;;;;;5008495;28;37916;-73
2021/11/30 05:07:48;;;;;;;23.23;7.63;;;9.90;99.90;;;;;;5012167;28;36960;-74
2021/11/30 05:10:18;;;;;;;20.77;7.97;;;9.90;99.90;;;;;;5008772;28;38247;-74
2021/11/30 05:12:45;;;;;;;25.47;7.23;;;10.00;99.90;;;;;;5010853;28;37230;-76
2021/11/30 05:15:12;;;;;;;18.40;7.27;;;10.00;99.90;;;;;;5009641;28;38555;-74
2021/11/30 05:17:38;;;;;;;17.80;7.07;;;10.00;99.90;;;;;;5011775;28;38448;-74
2021/11/30 05:20:05;;;;;;;19.23;8.33;;;10.00;99.90;;;;;;5008859;28;36805;-75
2021/11/30 05:22:32;;;;;;;15.40;7.47;;;10.00;99.90;;;;;;5011629;28;37047;-75
2021/11/30 05:24:58;;;;;;;23.50;7.03;;;10.00;99.90;;;;;;5011544;28;37731;-75
2021/11/30 05:27:26;;;;;;;33.53;8.13;;;10.10;99.90;;;;;;5007024;28;39895;-74
2021/11/30 05:29:52;;;;;;;24.27;7.00;;;10.10;99.90;;;;;;5014073;28;36962;-75
2021/11/30 05:32:19;;;;;;;20.10;6.57;;;10.10;99.90;;;;;;5015417;28;37005;-74
2021/11/30 05:34:46;;;;;;;22.73;7.17;;;10.10;99.90;;;;;;5012127;28;38588;-75
2021/11/30 05:37:13;;;;;;;24.33;6.67;;;10.20;99.90;;;;;;5017304;28;38403;-76
2021/11/30 05:39:40;;;;;;;17.63;6.77;;;10.30;99.90;;;;;;5020923;28;37341;-76
2021/11/30 05:42:07;;;;;;;19.00;6.37;;;10.30;99.90;;;;;;5014790;28;38129;-76
2021/11/30 05:44:33;;;;;;;17.60;5.70;;;10.40;99.90;;;;;;5018414;28;38742;-76
2021/11/30 05:47:00;;;;;;;14.33;6.10;;;10.40;99.90;;;;;;5012917;28;38906;-75
2021/11/30 05:49:26;;;;;;;18.10;7.47;;;10.40;99.90;;;;;;5009656;28;37060;-74
2021/11/30 05:51:53;;;;;;;14.50;6.03;;;10.40;99.90;;;;;;5008517;28;34949;-74
2021/11/30 05:54:20;;;;;;;20.27;7.63;;;10.40;99.90;;;;;;5009549;28;39385;-75
2021/11/30 05:56:46;;;;;;;21.83;7.50;;;10.50;99.90;;;;;;5004534;28;39546;-76
2021/11/30 05:59:15;;;;;;;20.20;7.67;;;10.50;99.90;;;;;;5008263;28;38141;-75
2021/11/30 06:01:41;;;;;;;22.33;6.70;;;10.50;99.90;;;;;;5009656;28;36377;-75
2021/11/30 06:04:07;;;;;;;19.93;6.83;;;10.50;99.90;;;;;;5007754;28;37238;-77
2021/11/30 06:06:36;;;;;;;24.23;7.00;;;10.50;99.90;;;;;;5035468;28;38638;-75
2021/11/30 06:09:05;;;;;;;24.80;8.07;;;10.50;99.90;;;;;;5008057;28;38619;-75
2021/11/30 06:11:31;;;;;;;20.70;6.37;;;10.60;99.90;;;;;;5040782;28;35807;-75
2021/11/30 06:13:58;;;;;;;23.57;7.27;;;10.60;99.90;;;;;;5011303;28;38894;-75
2021/11/30 06:16:24;;;;;;;23.57;8.03;;;10.60;99.90;;;;;;5039652;28;39109;-75
2021/11/30 06:18:50;;;;;;;21.27;6.83;;;10.60;99.90;;;;;;5015017;28;37804;-75
2021/11/30 06:21:17;;;;;;;17.27;6.43;;;10.60;99.90;;;;;;5018791;28;37120;-75
2021/11/30 06:23:44;;;;;;;19.00;6.47;;;10.60;99.90;;;;;;5017885;28;37937;-75
2021/11/30 06:26:11;;;;;;;16.67;6.37;;;10.60;99.90;;;;;;5014400;28;38685;-76
2021/11/30 06:28:38;;;;;;;15.73;6.37;;;10.70;99.90;;;;;;5015849;28;38502;-74
2021/11/30 06:31:06;;;;;;;22.63;5.87;;;10.70;99.90;;;;;;5017989;28;36269;-76
2021/11/30 06:33:32;;;;;;;18.37;5.97;;;10.70;99.90;;;;;;5022408;28;40180;-74
2021/11/30 06:35:59;;;;;;;16.97;6.30;;;10.70;99.90;;;;;;5017712;28;37715;-76
2021/11/30 06:38:27;;;;;;;15.90;5.77;;;10.70;99.90;;;;;;5017855;28;38440;-76
2021/11/30 06:40:53;;;;;;;15.30;6.00;;;10.70;99.90;;;;;;5020816;28;37335;-76
2021/11/30 06:43:19;;;;;;;18.53;6.80;;;10.70;99.90;;;;;;5021088;28;38387;-75
2021/11/30 06:45:46;;;;;;;15.13;5.30;;;10.70;99.90;;;;;;5038359;28;40155;-77
2021/11/30 06:48:12;;;;;;;19.43;5.73;;;10.80;99.90;;;;;;5021661;28;37095;-76
2021/11/30 06:50:39;;;;;;;19.07;6.67;;;10.80;99.90;;;;;;5018224;28;38121;-76
2021/11/30 06:53:05;;;;;;;18.53;7.17;;;10.80;99.90;;;;;;5014944;28;36869;-76
2021/11/30 06:55:31;;;;;;;25.40;8.73;;;10.80;99.90;;;;;;5018022;28;38825;-74
2021/11/30 06:57:58;;;;;;;21.00;7.53;;;10.80;99.90;;;;;;5010981;28;38768;-74
2021/11/30 07:00:25;;;;;;;27.37;8.13;;;10.80;99.90;;;;;;5035629;28;36928;-75
2021/11/30 07:02:52;;;;;;;27.80;8.13;;;10.80;99.90;;;;;;5033126;28;38685;-75
2021/11/30 07:05:25;;;;;;;22.83;7.17;;;10.80;99.90;;;;;;5037955;28;39218;-76
2021/11/30 07:15:39;;;;;;;30.77;6.57;;;11.00;99.90;;;;;;5018654;28;49451;-76
2021/11/30 07:18:05;;;;;;;22.07;7.60;;;10.90;99.90;;;;;;5024364;28;38568;-75
2021/11/30 07:20:31;;;;;;;22.60;6.80;;;10.90;99.90;;;;;;5020218;28;37009;-75
2021/11/30 07:22:58;;;;;;;24.87;6.70;;;11.00;99.90;;;;;;5023299;28;38561;-76
2021/11/30 07:25:25;;;;;;;23.60;6.70;;;10.90;99.90;;;;;;5015150;28;37244;-76
2021/11/30 07:27:52;;;;;;;25.40;6.23;;;11.00;99.90;;;;;;5010812;28;39195;-76
2021/11/30 07:30:19;;;;;;;18.57;5.23;;;11.00;99.90;;;;;;5006722;28;37176;-76
2021/11/30 07:32:45;;;;;;;16.40;5.20;;;11.00;99.90;;;;;;5012414;28;39044;-77
2021/11/30 07:35:12;;;;;;;16.60;5.10;;;11.00;99.90;;;;;;5008268;28;38264;-78
2021/11/30 07:37:38;;;;;;;18.83;5.53;;;11.00;99.90;;;;;;5013283;28;39301;-78
2021/11/30 07:40:05;;;;;;;18.40;5.60;;;11.10;99.90;;;;;;5011372;28;37364;-77
2021/11/30 07:42:32;;;;;;;20.50;5.30;;;11.10;99.90;;;;;;5007752;28;47041;-76
2021/11/30 07:44:59;;;;;;;18.10;5.20;;;11.10;99.90;;;;;;5010909;28;38488;-77
2021/11/30 07:47:26;;;;;;;20.30;5.60;;;11.20;99.90;;;;;;5010287;28;38140;-76
2021/11/30 07:49:52;;;;;;;19.67;4.77;;;11.20;99.90;;;;;;5012599;28;38586;-78
2021/11/30 07:52:18;;;;;;;22.13;5.93;;;11.10;99.90;;;;;;5014074;28;39666;-75
2021/11/30 07:54:46;;;;;;;20.53;5.37;;;11.20;99.90;;;;;;5009156;28;37210;-75
2021/11/30 07:57:12;;;;;;;23.43;4.90;;;11.10;99.90;;;;;;5006845;28;37974;-75
2021/11/30 07:59:39;;;;;;;17.80;5.90;;;11.10;99.90;;;;;;5012848;28;37274;-76
2021/11/30 08:02:06;;;;;;;26.17;6.47;;;11.10;99.90;;;;;;5006898;28;38675;-76
2021/11/30 08:04:32;;;;;;;22.27;5.77;;;11.10;99.90;;;;;;5021638;28;38592;-76
2021/11/30 08:06:58;;;;;;;20.93;5.23;;;11.20;99.90;;;;;;5019329;28;38570;-75
2021/11/30 08:09:26;;;;;;;16.57;4.63;;;11.20;99.90;;;;;;5018130;28;37310;-76
2021/11/30 08:11:54;;;;;;;20.93;5.20;;;11.20;99.90;;;;;;5018310;28;38891;-76
2021/11/30 08:14:21;;;;;;;21.70;6.30;;;11.20;99.90;;;;;;5021367;28;38747;-76
2021/11/30 08:16:47;;;;;;;20.83;4.90;;;11.30;99.90;;;;;;5028698;28;39926;-75
2021/11/30 08:19:13;;;;;;;20.70;4.97;;;11.30;99.90;;;;;;5024405;28;38106;-76
2021/11/30 08:21:39;;;;;;;19.43;4.57;;;11.30;99.90;;;;;;5030041;28;40511;-76
2021/11/30 08:24:06;;;;;;;14.27;3.93;;;11.30;99.90;;;;;;5035922;28;39092;-76
2021/11/30 08:26:32;;;;;;;18.43;4.57;;;11.30;99.90;;;;;;5051072;28;38547;-76
2021/11/30 08:28:58;;;;;;;17.50;3.90;;;11.30;99.90;;;;;;5044240;28;38099;-77
2021/11/30 08:31:25;;;;;;;21.90;4.00;;;11.40;99.90;;;;;;5038840;28;40843;-77
2021/11/30 08:33:51;;;;;;;20.47;4.77;;;11.40;99.90;;;;;;5039084;28;39956;-76
2021/11/30 08:36:17;;;;;;;16.93;5.23;;;11.40;99.90;;;;;;5037182;28;39611;-77
2021/11/30 08:38:44;;;;;;;16.37;3.77;;;11.40;99.90;;;;;;5037757;28;38702;-78
2021/11/30 08:41:10;;;;;;;21.30;4.60;;;11.40;99.90;;;;;;5030383;28;38583;-77
2021/11/30 08:43:36;;;;;;;15.50;3.63;;;11.40;99.90;;;;;;5038626;28;39232;-76
2021/11/30 08:46:03;;;;;;;24.20;4.40;;;11.50;99.90;;;;;;5038398;28;38279;-76
2021/11/30 08:48:30;;;;;;;21.07;3.50;;;11.40;99.90;;;;;;5034046;28;37196;-77
2021/11/30 08:50:59;;;;;;;16.03;4.07;;;11.40;99.90;;;;;;5049079;28;39107;-77
2021/11/30 08:53:26;;;;;;;19.40;5.03;;;11.40;99.90;;;;;;5036001;28;39153;-74
2021/11/30 08:55:52;;;;;;;18.43;3.43;;;11.50;99.90;;;;;;5024295;28;38206;-74
2021/11/30 08:58:18;;;;;;;16.23;3.73;;;11.60;99.90;;;;;;5016655;28;37624;-74
2021/11/30 09:00:45;;;;;;;25.33;3.53;;;11.60;99.90;;;;;;5030154;28;40194;-73
2021/11/30 09:03:12;;;;;;;15.90;3.17;;;11.60;99.90;;;;;;5021646;28;20053;-74
2021/11/30 09:05:38;;;;;;;20.80;3.93;;;11.60;99.90;;;;;;5017827;28;38197;-74
2021/11/30 09:08:04;;;;;;;16.33;3.23;;;11.70;99.90;;;;;;5019684;28;38031;-75
2021/11/30 09:10:30;;;;;;;13.27;3.13;;;11.70;99.90;;;;;;5054356;28;39635;-75
2021/11/30 09:12:57;;;;;;;12.07;3.37;;;11.60;99.90;;;;;;5023219;28;38266;-74
2021/11/30 09:15:23;;;;;;;13.83;3.70;;;11.60;99.90;;;;;;5021652;28;37952;-74
2021/11/30 09:17:52;;;;;;;18.07;3.30;;;11.60;99.90;;;;;;5022930;28;38197;-74
2021/11/30 09:20:19;;;;;;;14.70;3.50;;;11.60;99.90;;;;;;5019199;28;40543;-74
2021/11/30 09:22:45;;;;;;;21.47;3.83;;;11.60;99.90;;;;;;5021324;28;38707;-73
2021/11/30 09:25:11;;;;;;;15.47;3.33;;;11.60;99.90;;;;;;5026912;28;38312;-74
2021/11/30 09:27:39;;;;;;;16.67;3.67;;;11.70;99.90;;;;;;5019741;28;38033;-74
2021/11/30 09:30:08;;;;;;;17.10;3.70;;;11.70;99.90;;;;;;5018219;28;38683;-76
2021/11/30 09:32:34;;;;;;;23.63;5.23;;;11.70;99.90;;;;;;5023412;28;49060;-74
2021/11/30 09:35:01;;;;;;;15.70;3.43;;;11.70;99.90;;;;;;5018936;28;39949;-74
2021/11/30 09:37:29;;;;;;;22.27;4.10;;;11.70;99.90;;;;;;5017993;28;38992;-74
2021/11/30 09:39:58;;;;;;;22.67;4.83;;;11.70;99.90;;;;;;5009926;28;38548;-75
2021/11/30 09:42:24;;;;;;;15.93;3.70;;;11.70;99.90;;;;;;5008643;28;39070;-74
2021/11/30 09:44:50;;;;;;;13.07;3.40;;;11.70;99.90;;;;;;5030857;28;39825;-74
2021/11/30 09:47:16;;;;;;;17.20;3.83;;;11.70;99.90;;;;;;5034527;28;37403;-75
2021/11/30 09:49:44;;;;;;;12.83;3.20;;;11.70;99.90;;;;;;5038647;28;39173;-75
2021/11/30 09:52:10;;;;;;;12.97;3.10;;;11.70;99.90;;;;;;5028342;28;38665;-74
2021/11/30 09:54:37;;;;;;;11.40;3.57;;;11.70;99.90;;;;;;5035977;28;39170;-74
2021/11/30 09:57:03;;;;;;;15.27;3.57;;;11.70;99.90;;;;;;5027623;28;37283;-74
2021/11/30 09:59:30;;;;;;;15.43;3.77;;;11.70;99.90;;;;;;5035087;28;40992;-74
2021/11/30 10:01:56;;;;;;;13.77;3.43;;;11.70;99.90;;;;;;5021293;28;39367;-74
2021/11/30 10:04:23;;;;;;;19.67;4.20;;;11.70;99.90;;;;;;5023260;28;37863;-74
2021/11/30 10:06:49;;;;;;;17.30;3.10;;;11.70;99.90;;;;;;5020753;28;37806;-74
2021/11/30 10:09:20;;;;;;;19.67;3.33;;;11.70;99.90;;;;;;5023684;28;39188;-75
2021/11/30 10:11:55;;;;;;;16.20;3.37;;;11.70;99.90;;;;;;5021926;28;39050;-74
2021/11/30 10:14:24;;;;;;;11.33;3.03;;;11.70;99.90;;;;;;5014694;28;36717;-74
2021/11/30 10:17:26;;;;;;;16.97;4.43;;;11.70;99.90;;;;;;5063054;28;37569;-75
2021/11/30 10:19:58;;;;;;;12.20;3.07;;;11.70;99.90;;;;;;5024969;28;47094;-75
2021/11/30 10:22:35;;;;;;;18.05;3.92;;;11.80;99.90;;;;;;5040478;28;38891;-75
2021/11/30 10:25:14;;;;;;;18.67;3.97;;;11.80;99.90;;;;;;5042057;28;39356;-76
2021/11/30 10:27:55;;;;;;;20.70;4.33;;;11.70;99.90;;;;;;5042625;28;49711;-76
2021/11/30 10:30:27;;;;;;;25.30;4.53;;;11.70;99.90;;;;;;5046110;28;40327;-75
2021/11/30 10:32:57;;;;;;;16.13;3.13;;;11.70;99.90;;;;;;5036895;28;37371;-75
2021/11/30 10:35:26;;;;;;;16.93;3.53;;;11.70;99.90;;;;;;5034062;28;37791;-75
2021/11/30 10:37:52;;;;;;;15.30;3.00;;;11.70;99.90;;;;;;5042878;28;38316;-75
2021/11/30 10:40:22;;;;;;;12.37;2.70;;;11.70;99.90;;;;;;5018147;28;38611;-75
2021/11/30 10:42:53;;;;;;;7.63;2.40;;;11.70;99.90;;;;;;5022794;28;37465;-75
2021/11/30 10:45:31;;;;;;;12.50;3.00;;;11.70;99.90;;;;;;5022557;28;38061;-74
2021/11/30 10:48:10;;;;;;;14.47;3.27;;;11.70;99.90;;;;;;5028582;28;37336;-75
2021/11/30 10:50:45;;;;;;;16.50;3.90;;;11.70;99.90;;;;;;5021558;28;47337;-75
2021/11/30 10:53:31;;;;;;;15.87;3.47;;;11.70;99.90;;;;;;5024492;28;38289;-75
2021/11/30 10:56:00;;;;;;;19.23;4.03;;;11.70;99.90;;;;;;5017478;28;36970;-75
2021/11/30 10:58:29;;;;;;;14.23;3.60;;;11.70;99.90;;;;;;5036954;28;47610;-75
2021/11/30 11:01:00;;;;;;;17.17;3.27;;;11.70;99.90;;;;;;5043831;28;40678;-75
2021/11/30 11:03:27;;;;;;;12.15;3.03;;;11.70;99.90;;;;;;5042845;28;48321;-75
2021/11/30 11:08:46;;;;;;;13.97;3.10;;;11.70;99.90;;;;;;5032359;28;49090;-75
2021/11/30 11:11:19;;;;;;;15.87;3.63;;;11.70;99.90;;;;;;5011343;28;39166;-75
2021/11/30 11:13:46;;;;;;;13.30;3.15;;;11.70;99.90;;;;;;5016620;28;38216;-75
2021/11/30 11:16:26;;;;;;;15.10;4.40;;;11.80;99.90;;;;;;5025674;28;38518;-75
2021/11/30 11:18:55;;;;;;;15.63;3.70;;;11.70;99.90;;;;;;5027005;28;36175;-75
2021/11/30 11:21:32;;;;;;;20.17;4.37;;;11.70;99.90;;;;;;5049350;28;38980;-76
2021/11/30 11:24:09;;;;;;;16.43;3.90;;;11.80;99.90;;;;;;5022956;28;38465;-75
2021/11/30 11:26:46;;;;;;;13.53;4.43;;;11.70;99.90;;;;;;5011610;28;48333;-75
2021/11/30 11:29:14;;;;;;;19.93;4.57;;;11.70;99.90;;;;;;5017773;28;37102;-74
2021/11/30 11:32:02;;;;;;;15.83;5.07;;;11.70;99.90;;;;;;5022598;28;39990;-75
2021/11/30 11:34:31;;;;;;;18.53;4.93;;;11.80;99.90;;;;;;5041735;28;48945;-75
2021/11/30 11:36:59;;;;;;;16.63;4.50;;;11.80;99.90;;;;;;5041466;28;38651;-74
2021/11/30 11:39:27;;;;;;;14.10;4.13;;;11.70;99.90;;;;;;5030589;28;36747;-76
2021/11/30 11:42:03;;;;;;;16.07;4.83;;;11.80;99.90;;;;;;5027712;28;39323;-75
2021/11/30 11:44:30;;;;;;;28.57;6.60;;;11.70;99.90;;;;;;5016413;28;47741;-75
2021/11/30 11:47:06;;;;;;;13.77;4.33;;;11.70;99.90;;;;;;5029225;28;38364;-75
2021/11/30 11:49:41;;;;;;;23.97;5.27;;;11.70;99.90;;;;;;5045702;28;47050;-76
2021/11/30 11:52:29;;;;;;;15.47;4.70;;;11.70;99.90;;;;;;5067258;28;37802;-74
2021/11/30 11:55:02;;;;;;;23.67;4.23;;;11.70;99.90;;;;;;5025742;28;38707;-75
2021/11/30 11:57:28;;;;;;;23.80;5.17;;;11.70;99.90;;;;;;5036015;28;46900;-75
2021/11/30 11:59:55;;;;;;;16.40;4.60;;;11.70;99.90;;;;;;5042678;28;38193;-76
2021/11/30 12:02:26;;;;;;;19.33;4.80;;;11.70;99.90;;;;;;5037976;28;40063;-76
2021/11/30 12:05:06;;;;;;;25.10;4.77;;;11.70;99.90;;;;;;5031044;28;37237;-73
2021/11/30 12:08:01;;;;;;;19.27;5.17;;;11.70;99.90;;;;;;5045493;28;48503;-76
2021/11/30 12:10:29;;;;;;;25.17;5.23;;;11.70;99.90;;;;;;5023571;28;36459;-76
2021/11/30 12:12:58;;;;;;;24.43;5.33;;;11.70;99.90;;;;;;5019399;28;38167;-76
2021/11/30 12:15:33;;;;;;;21.60;4.53;;;11.70;99.90;;;;;;5016992;28;37588;-75
2021/11/30 12:18:27;;;;;;;21.03;4.90;;;11.70;99.90;;;;;;5044195;28;38505;-75
2021/11/30 12:21:23;;;;;;;21.57;4.87;;;11.70;99.90;;;;;;5056037;28;47384;-74
2021/11/30 12:23:59;;;;;;;19.13;3.87;;;11.70;99.90;;;;;;5029348;28;48362;-75
2021/11/30 12:26:28;;;;;;;25.00;6.00;;;11.70;99.90;;;;;;5013750;28;38553;-75
2021/11/30 12:28:55;;;;;;;23.00;4.20;;;11.70;99.90;;;;;;5021167;28;39211;-75
2021/11/30 12:31:31;;;;;;;21.67;4.53;;;11.70;99.90;;;;;;5021011;28;36494;-75
2021/11/30 12:33:58;;;;;;;20.77;4.03;;;11.70;99.90;;;;;;5018832;28;38995;-75
2021/11/30 12:36:34;;;;;;;25.20;5.03;;;11.70;99.90;;;;;;5010162;28;38221;-75
2021/11/30 12:39:02;;;;;;;19.63;4.47;;;11.70;99.90;;;;;;5020310;28;37139;-75
2021/11/30 12:41:30;;;;;;;19.47;4.13;;;11.70;99.90;;;;;;5031968;28;46757;-75
2021/11/30 12:44:07;;;;;;;20.23;4.30;;;11.70;99.90;;;;;;5040759;28;38418;-75
2021/11/30 12:46:38;;;;;;;23.93;4.70;;;11.70;99.90;;;;;;5035072;28;47387;-75
2021/11/30 12:49:27;;;;;;;22.33;5.20;;;11.70;99.90;;;;;;5032811;28;38815;-75
2021/11/30 12:52:11;;;;;;;22.80;4.80;;;11.70;99.90;;;;;;5022644;28;36458;-75
2021/11/30 12:54:39;;;;;;;21.73;4.00;;;11.70;99.90;;;;;;5018675;28;47362;-75
2021/11/30 12:57:07;;;;;;;21.33;4.27;;;11.70;99.90;;;;;;5014793;28;40288;-76
2021/11/30 12:59:40;;;;;;;19.53;4.73;;;11.70;99.90;;;;;;5035677;28;38237;-75